createdAt,value
2023-04-11T00:03:36.806Z,36.00
2023-04-11T00:08:38.351Z,36.00
2023-04-11T00:13:39.751Z,36.00
2023-04-11T00:18:41.149Z,36.00
2023-04-11T00:23:42.569Z,36.00
2023-04-11T00:28:43.973Z,36.10
2023-04-11T00:33:45.378Z,36.10
2023-04-11T00:38:46.777Z,36.00
2023-04-11T00:43:48.173Z,36.10
2023-04-11T00:48:49.592Z,36.10
2023-04-11T00:53:50.994Z,36.10
2023-04-11T00:58:52.514Z,36.20
2023-04-11T01:03:54.158Z,36.10
2023-04-11T01:08:55.975Z,36.10
2023-04-11T01:13:57.717Z,36.10
2023-04-11T01:18:59.134Z,36.10
2023-04-11T01:24:00.545Z,36.10
2023-04-11T01:29:01.933Z,36.10
2023-04-11T01:34:03.342Z,36.10
2023-04-11T01:39:04.770Z,36.10
2023-04-11T01:44:06.181Z,36.10
2023-04-11T01:49:07.670Z,36.10
2023-04-11T01:54:09.307Z,36.10
2023-04-11T01:59:10.709Z,36.10
2023-04-11T02:04:12.316Z,36.10
2023-04-11T02:09:13.887Z,36.10
2023-04-11T02:14:15.297Z,36.10
2023-04-11T02:19:16.723Z,36.10
2023-04-11T02:24:18.126Z,36.00
2023-04-11T02:29:19.557Z,36.00
2023-04-11T02:34:20.990Z,36.10
2023-04-11T02:39:22.506Z,36.10
2023-04-11T02:44:23.936Z,36.00
2023-04-11T02:49:25.400Z,36.10
2023-04-11T02:54:26.862Z,36.10
2023-04-11T02:59:28.524Z,36.10
2023-04-11T03:04:29.987Z,36.00
2023-04-11T03:09:31.455Z,36.10
2023-04-11T03:14:32.917Z,36.10
2023-04-11T03:19:34.381Z,36.10
2023-04-11T03:24:35.833Z,36.10
2023-04-11T03:29:37.262Z,36.10
2023-04-11T03:34:38.780Z,36.10
2023-04-11T03:39:40.223Z,36.10
2023-04-11T03:44:41.639Z,36.10
2023-04-11T03:49:43.068Z,36.10
2023-04-11T03:54:46.316Z,36.10
2023-04-11T03:59:49.055Z,36.10
2023-04-11T04:04:50.579Z,36.10
2023-04-11T04:09:52.121Z,36.10
2023-04-11T04:14:53.543Z,36.10
2023-04-11T04:19:54.962Z,36.20
2023-04-11T04:24:56.364Z,36.20
2023-04-11T04:30:03.961Z,36.20
2023-04-11T04:35:05.804Z,36.20
2023-04-11T04:40:07.229Z,36.20
2023-04-11T04:45:08.774Z,36.30
2023-04-11T04:50:10.347Z,36.30
2023-04-11T04:55:11.804Z,36.30
2023-04-11T05:00:13.256Z,36.30
2023-04-11T05:05:14.728Z,36.30
2023-04-11T05:10:16.141Z,36.30
2023-04-11T05:15:17.537Z,36.20
2023-04-11T05:20:18.950Z,36.30
2023-04-11T05:25:20.385Z,36.20
2023-04-11T05:30:21.807Z,36.20
2023-04-11T05:35:23.215Z,36.20
2023-04-11T05:40:24.683Z,36.40
2023-04-11T05:45:26.107Z,36.20
2023-04-11T05:50:27.503Z,36.20
2023-04-11T05:55:28.915Z,36.20
2023-04-11T06:00:30.350Z,36.10
2023-04-11T06:05:31.795Z,36.10
2023-04-11T06:10:33.225Z,36.20
2023-04-11T06:15:34.701Z,36.20
2023-04-11T06:20:36.127Z,36.20
2023-04-11T06:25:38.591Z,36.10
2023-04-11T06:30:39.996Z,36.20
2023-04-11T06:35:41.418Z,36.10
2023-04-11T06:40:42.862Z,36.10
2023-04-11T06:45:44.263Z,36.10
2023-04-11T06:50:45.688Z,36.70
2023-04-11T06:55:47.097Z,36.20
2023-04-11T07:00:48.503Z,36.20
2023-04-11T07:05:49.967Z,36.20
2023-04-11T07:10:51.360Z,36.10
2023-04-11T07:15:52.786Z,36.20
2023-04-11T07:20:54.240Z,36.10
2023-04-11T07:25:55.656Z,36.10
2023-04-11T07:30:57.109Z,36.20
2023-04-11T07:35:58.532Z,36.10
2023-04-11T07:41:00.022Z,36.20
2023-04-11T07:46:01.451Z,36.10
2023-04-11T07:51:02.877Z,36.10
2023-04-11T07:56:04.334Z,36.20
2023-04-11T08:01:05.758Z,36.20
2023-04-11T08:06:07.185Z,36.20
2023-04-11T08:11:08.607Z,36.20
2023-04-11T08:16:10.068Z,36.10
2023-04-11T08:21:11.566Z,36.20
2023-04-11T08:26:13.029Z,36.10
2023-04-11T08:31:14.536Z,36.10
2023-04-11T08:36:16.031Z,36.10
2023-04-11T08:41:17.497Z,36.20
2023-04-11T08:46:18.921Z,36.20
2023-04-11T08:51:20.332Z,36.30
2023-04-11T08:56:21.738Z,36.30
2023-04-11T09:01:23.202Z,36.20
2023-04-11T09:06:24.630Z,36.20
2023-04-11T09:11:26.046Z,36.20
2023-04-11T09:16:27.475Z,36.30
2023-04-11T09:21:29.272Z,36.30
2023-04-11T09:26:30.732Z,36.30
2023-04-11T09:31:32.153Z,36.30
2023-04-11T09:36:33.611Z,36.30
2023-04-11T09:41:35.028Z,36.30
2023-04-11T09:46:36.540Z,36.20
2023-04-11T09:51:37.996Z,36.20
2023-04-11T09:56:39.404Z,36.20
2023-04-11T10:01:40.857Z,36.20
2023-04-11T10:06:42.343Z,36.20
2023-04-11T10:11:43.762Z,36.20
2023-04-11T10:16:45.196Z,36.20
2023-04-11T10:21:46.620Z,36.30
2023-04-11T10:26:48.057Z,36.20
2023-04-11T10:31:49.493Z,36.20
2023-04-11T10:36:50.937Z,36.20
2023-04-11T10:41:52.333Z,36.30
2023-04-11T10:46:54.007Z,36.30
2023-04-11T10:51:58.041Z,36.30
2023-04-11T10:56:59.501Z,36.30
2023-04-11T11:02:00.980Z,36.20
2023-04-11T11:07:02.441Z,36.10
2023-04-11T11:12:03.966Z,36.00
2023-04-11T11:17:05.490Z,35.90
2023-04-11T11:22:06.963Z,35.90
2023-04-11T11:27:08.388Z,35.80
2023-04-11T11:32:09.836Z,35.80
2023-04-11T11:37:11.276Z,35.70
2023-04-11T11:42:12.679Z,35.70
2023-04-11T11:47:14.082Z,35.50
2023-04-11T11:52:15.513Z,33.50
2023-04-11T11:57:16.941Z,32.30
2023-04-11T12:02:18.430Z,31.20
2023-04-11T12:07:19.858Z,30.40
2023-04-11T12:12:21.293Z,30.00
2023-04-11T12:17:22.788Z,29.90
2023-04-11T12:22:24.225Z,29.10
2023-04-11T12:27:25.633Z,28.70
2023-04-11T12:32:27.063Z,28.70
2023-04-11T12:37:28.489Z,29.20
2023-04-11T12:42:29.902Z,27.80
2023-04-11T12:47:31.378Z,28.30
2023-04-11T12:52:32.842Z,28.40
2023-04-11T12:57:34.320Z,28.80
2023-04-11T13:02:42.820Z,29.70
2023-04-11T13:07:46.131Z,29.40
2023-04-11T13:12:47.835Z,29.70
2023-04-11T13:17:49.369Z,29.90
2023-04-11T13:22:50.826Z,30.20
2023-04-11T13:27:52.229Z,30.40
2023-04-11T13:32:53.689Z,30.60
2023-04-11T13:37:55.128Z,30.80
2023-04-11T13:42:56.532Z,31.10
2023-04-11T13:47:58.033Z,31.30
2023-04-11T13:52:59.489Z,31.50
2023-04-11T13:58:00.879Z,31.70
2023-04-11T14:03:02.518Z,31.80
2023-04-11T14:08:04.009Z,31.90
2023-04-11T14:13:05.432Z,31.80
2023-04-11T14:18:06.904Z,31.40
2023-04-11T14:23:08.314Z,31.30
2023-04-11T14:28:09.715Z,30.60
2023-04-11T14:33:11.141Z,30.80
2023-04-11T14:38:12.570Z,30.60
2023-04-11T14:43:13.962Z,30.40
2023-04-11T14:48:15.372Z,30.00
2023-04-11T14:53:16.809Z,29.60
2023-04-11T14:58:18.230Z,29.40
2023-04-11T15:03:19.747Z,29.10
2023-04-11T15:08:21.248Z,28.80
2023-04-11T15:13:22.863Z,28.40
2023-04-11T15:18:24.354Z,28.50
2023-04-11T15:23:25.772Z,28.20
2023-04-11T15:28:27.180Z,27.90
2023-04-11T15:33:28.578Z,27.50
2023-04-11T15:38:29.971Z,27.80
2023-04-11T15:43:31.391Z,27.80
2023-04-11T15:48:32.821Z,27.90
2023-04-11T15:53:34.206Z,28.30
2023-04-11T15:58:35.608Z,27.90
2023-04-11T16:03:37.124Z,27.40
2023-04-11T16:08:38.660Z,28.60
2023-04-11T16:13:40.181Z,29.40
2023-04-11T16:18:41.599Z,30.80
2023-04-11T16:23:43.014Z,29.70
2023-04-11T16:28:47.316Z,28.80
2023-04-11T16:33:48.731Z,29.30
2023-04-11T16:38:50.131Z,29.20
2023-04-11T16:43:51.569Z,29.30
2023-04-11T16:48:52.967Z,29.20
2023-04-11T16:53:54.569Z,29.40
2023-04-11T16:58:56.146Z,29.00
2023-04-11T17:03:57.775Z,29.60
2023-04-11T17:08:59.494Z,29.20
2023-04-11T17:14:00.903Z,29.30
2023-04-11T17:19:02.306Z,29.10
2023-04-11T17:24:03.718Z,29.10
2023-04-11T17:29:05.128Z,29.10
2023-04-11T17:34:06.555Z,29.30
2023-04-11T17:39:07.953Z,28.90
2023-04-11T17:44:09.372Z,29.40
2023-04-11T17:49:10.786Z,29.50
2023-04-11T17:54:12.170Z,29.70
2023-04-11T17:59:13.579Z,29.90
2023-04-11T18:04:15.049Z,30.00
2023-04-11T18:09:16.574Z,30.10
2023-04-11T18:14:17.961Z,29.90
2023-04-11T18:19:19.370Z,30.00
2023-04-11T18:24:20.932Z,30.00
2023-04-11T18:29:22.345Z,29.70
2023-04-11T18:34:23.818Z,29.70
2023-04-11T18:39:25.704Z,29.30
2023-04-11T18:44:27.156Z,29.20
2023-04-11T18:49:30.130Z,29.00
2023-04-11T18:54:32.593Z,28.80
2023-04-11T18:59:38.923Z,28.90
2023-04-11T19:04:43.204Z,29.50
2023-04-11T19:09:45.231Z,30.60
2023-04-11T19:14:46.631Z,30.80
2023-04-11T19:19:48.068Z,30.60
2023-04-11T19:24:49.528Z,30.40
2023-04-11T19:29:50.983Z,30.20
2023-04-11T19:34:52.384Z,30.10
2023-04-11T19:39:53.778Z,30.10
2023-04-11T19:44:55.184Z,30.10
2023-04-11T19:49:56.577Z,30.10
2023-04-11T19:54:57.990Z,30.10
2023-04-11T19:59:59.416Z,30.10
2023-04-11T20:05:00.814Z,30.10
2023-04-11T20:10:02.231Z,30.20
2023-04-11T20:15:03.617Z,30.20
2023-04-11T20:20:05.017Z,30.30
2023-04-11T20:25:06.437Z,30.40
2023-04-11T20:30:07.883Z,30.40
2023-04-11T20:35:09.292Z,30.40
2023-04-11T20:40:10.819Z,30.50
2023-04-11T20:45:20.009Z,30.50
2023-04-11T20:50:21.445Z,30.60
2023-04-11T20:55:22.859Z,30.60
2023-04-11T21:00:24.264Z,30.70
2023-04-11T21:05:25.674Z,30.80
2023-04-11T21:10:27.092Z,30.80
2023-04-11T21:15:28.519Z,30.90
2023-04-11T21:20:29.938Z,30.80
2023-04-11T21:25:31.349Z,30.90
2023-04-11T21:30:32.753Z,30.90
2023-04-11T21:35:34.216Z,30.90
2023-04-11T21:40:35.617Z,31.00
2023-04-11T21:45:37.003Z,31.00
2023-04-11T21:50:38.398Z,31.10
2023-04-11T21:55:39.777Z,31.10
2023-04-11T22:00:41.190Z,31.20
2023-04-11T22:05:42.711Z,31.20
2023-04-11T22:10:47.669Z,31.20
2023-04-11T22:15:49.641Z,31.20
2023-04-11T22:20:51.042Z,31.30
2023-04-11T22:25:52.437Z,31.30
2023-04-11T22:30:53.827Z,31.30
2023-04-11T22:35:55.239Z,31.40
2023-04-11T22:40:56.679Z,31.40
2023-04-11T22:45:58.112Z,31.40
2023-04-11T22:50:59.538Z,31.50
2023-04-11T22:56:00.942Z,31.50
2023-04-11T23:01:02.348Z,31.60
2023-04-11T23:06:03.750Z,31.50
2023-04-11T23:11:05.133Z,31.60
2023-04-11T23:16:06.523Z,31.60
2023-04-11T23:21:07.917Z,31.60
2023-04-11T23:26:09.307Z,31.60
2023-04-11T23:31:10.752Z,31.70
2023-04-11T23:36:12.214Z,31.70
2023-04-11T23:41:13.635Z,31.70
2023-04-11T23:46:15.124Z,31.70
2023-04-11T23:51:16.617Z,31.80
2023-04-11T23:56:18.023Z,31.80
